createdAt,value
2018-12-15T00:02:26.573Z,5.50
2018-12-15T00:04:54.073Z,5.50
2018-12-15T00:07:21.573Z,5.50
2018-12-15T00:09:49.068Z,5.50
2018-12-15T00:12:16.571Z,5.50
2018-12-15T00:14:44.105Z,5.50
2018-12-15T00:17:11.605Z,5.50
2018-12-15T00:19:39.107Z,5.50
2018-12-15T00:22:06.601Z,5.50
2018-12-15T00:24:34.105Z,5.50
2018-12-15T00:27:01.610Z,5.50
2018-12-15T00:29:29.112Z,5.50
2018-12-15T00:31:56.608Z,5.50
2018-12-15T00:34:24.104Z,5.50
2018-12-15T00:36:51.601Z,5.50
2018-12-15T00:39:19.105Z,5.50
2018-12-15T00:41:46.605Z,5.50
2018-12-15T00:44:14.101Z,5.50
2018-12-15T00:46:41.604Z,5.50
2018-12-15T00:49:09.105Z,5.50
2018-12-15T00:51:36.608Z,5.40
2018-12-15T00:54:04.109Z,5.40
2018-12-15T00:56:31.609Z,5.40
2018-12-15T00:58:59.109Z,5.40
2018-12-15T01:01:26.609Z,5.40
2018-12-15T01:03:54.106Z,5.40
2018-12-15T01:06:21.614Z,5.40
2018-12-15T01:08:49.114Z,5.40
2018-12-15T01:11:16.614Z,5.40
2018-12-15T01:13:44.110Z,5.40
2018-12-15T01:16:11.606Z,5.40
2018-12-15T01:18:39.098Z,5.40
2018-12-15T01:21:06.597Z,5.40
2018-12-15T01:23:34.105Z,5.40
2018-12-15T01:26:01.597Z,5.40
2018-12-15T01:28:29.102Z,5.40
2018-12-15T01:30:56.601Z,5.40
2018-12-15T01:33:24.098Z,5.40
2018-12-15T01:35:51.597Z,5.40
2018-12-15T01:38:19.105Z,5.40
2018-12-15T01:40:46.601Z,5.40
2018-12-15T01:43:14.097Z,5.40
2018-12-15T01:45:41.598Z,5.40
2018-12-15T01:48:09.100Z,5.40
2018-12-15T01:50:36.605Z,5.40
2018-12-15T01:53:04.106Z,5.40
2018-12-15T01:55:31.604Z,5.40
2018-12-15T01:57:59.097Z,5.40
2018-12-15T02:00:26.589Z,5.40
2018-12-15T02:02:54.092Z,5.30
2018-12-15T02:05:21.593Z,5.30
2018-12-15T02:07:49.090Z,5.30
2018-12-15T02:10:16.590Z,5.30
2018-12-15T02:12:44.089Z,5.30
2018-12-15T02:15:11.593Z,5.30
2018-12-15T02:17:39.088Z,5.30
2018-12-15T02:20:06.665Z,5.30
2018-12-15T02:22:34.163Z,5.30
2018-12-15T02:25:01.658Z,5.30
2018-12-15T02:27:29.162Z,5.30
2018-12-15T02:29:56.671Z,5.30
2018-12-15T02:32:24.176Z,5.30
2018-12-15T02:34:51.684Z,5.30
2018-12-15T02:37:19.262Z,5.30
2018-12-15T02:39:46.806Z,5.30
2018-12-15T02:42:14.304Z,5.30
2018-12-15T02:44:41.810Z,5.30
2018-12-15T02:47:09.310Z,5.30
2018-12-15T02:49:36.816Z,5.30
2018-12-15T02:52:04.602Z,5.30
2018-12-15T02:54:32.104Z,5.30
2018-12-15T02:56:59.614Z,5.30
2018-12-15T02:59:27.117Z,5.30
2018-12-15T03:01:54.614Z,5.30
2018-12-15T03:04:22.113Z,5.30
2018-12-15T03:06:49.615Z,5.20
2018-12-15T03:09:17.122Z,5.30
2018-12-15T03:11:44.622Z,5.20
2018-12-15T03:14:12.121Z,5.20
2018-12-15T03:16:43.569Z,5.20
2018-12-15T03:19:11.153Z,5.20
2018-12-15T03:21:38.663Z,5.20
2018-12-15T03:24:06.261Z,5.20
2018-12-15T03:26:33.752Z,5.20
2018-12-15T03:29:01.256Z,5.20
2018-12-15T03:31:28.759Z,5.20
2018-12-15T03:33:56.261Z,5.20
2018-12-15T03:36:23.759Z,5.20
2018-12-15T03:38:51.256Z,5.20
2018-12-15T03:41:18.758Z,5.20
2018-12-15T03:43:46.263Z,5.20
2018-12-15T03:46:13.761Z,5.20
2018-12-15T03:48:41.263Z,5.20
2018-12-15T03:51:08.761Z,5.20
2018-12-15T03:53:36.261Z,5.20
2018-12-15T03:56:03.758Z,5.20
2018-12-15T03:58:31.254Z,5.20
2018-12-15T04:00:58.750Z,5.20
2018-12-15T04:03:26.245Z,5.20
2018-12-15T04:05:53.743Z,5.20
2018-12-15T04:08:21.246Z,5.20
2018-12-15T04:10:48.843Z,5.20
2018-12-15T04:13:16.345Z,5.20
2018-12-15T04:15:43.852Z,5.20
2018-12-15T04:18:11.349Z,5.20
2018-12-15T04:20:38.843Z,5.20
2018-12-15T04:23:06.426Z,5.20
2018-12-15T04:25:33.961Z,5.20
2018-12-15T04:28:01.461Z,5.20
2018-12-15T04:30:28.958Z,5.10
2018-12-15T04:32:56.453Z,5.10
2018-12-15T04:35:23.951Z,5.10
2018-12-15T04:37:51.446Z,5.10
2018-12-15T04:40:19.324Z,5.10
2018-12-15T04:42:46.821Z,5.10
2018-12-15T04:45:14.314Z,5.10
2018-12-15T04:47:41.914Z,5.10
2018-12-15T04:50:09.421Z,5.10
2018-12-15T04:52:36.921Z,5.10
2018-12-15T04:55:04.697Z,5.10
2018-12-15T04:57:32.194Z,5.10
2018-12-15T04:59:59.699Z,5.10
2018-12-15T05:02:27.277Z,5.10
2018-12-15T05:04:54.845Z,5.10
2018-12-15T05:07:22.350Z,5.10
2018-12-15T05:09:49.868Z,5.10
2018-12-15T05:12:17.366Z,5.10
2018-12-15T05:14:44.856Z,5.10
2018-12-15T05:17:12.354Z,5.10
2018-12-15T05:19:39.857Z,5.10
2018-12-15T05:22:07.435Z,5.10
2018-12-15T05:24:34.933Z,5.10
2018-12-15T05:27:02.430Z,5.10
2018-12-15T05:29:29.936Z,5.10
2018-12-15T05:31:57.433Z,5.10
2018-12-15T05:34:24.926Z,5.10
2018-12-15T05:36:52.426Z,5.10
2018-12-15T05:39:20.040Z,5.10
2018-12-15T05:41:47.529Z,5.10
2018-12-15T05:44:15.021Z,5.10
2018-12-15T05:46:42.518Z,5.10
2018-12-15T05:49:10.013Z,5.00
2018-12-15T05:51:37.510Z,5.00
2018-12-15T05:54:05.009Z,5.00
2018-12-15T05:56:32.509Z,5.00
2018-12-15T05:59:00.005Z,5.00
2018-12-15T06:01:27.499Z,5.00
2018-12-15T06:03:55.005Z,5.00
2018-12-15T06:06:22.502Z,5.00
2018-12-15T06:08:49.998Z,5.00
2018-12-15T06:11:17.490Z,5.00
2018-12-15T06:13:44.990Z,5.00
2018-12-15T06:16:12.841Z,5.00
2018-12-15T06:18:40.335Z,5.00
2018-12-15T06:21:07.837Z,5.00
2018-12-15T06:23:35.343Z,5.00
2018-12-15T06:26:02.845Z,5.00
2018-12-15T06:28:30.346Z,5.00
2018-12-15T06:30:57.849Z,5.00
2018-12-15T06:33:25.355Z,5.00
2018-12-15T06:35:52.857Z,5.00
2018-12-15T06:38:20.353Z,5.00
2018-12-15T06:40:47.849Z,5.00
2018-12-15T06:43:15.429Z,5.00
2018-12-15T06:45:43.301Z,5.00
2018-12-15T06:48:10.793Z,5.00
2018-12-15T06:50:38.289Z,5.00
2018-12-15T06:53:05.785Z,5.00
2018-12-15T06:55:33.277Z,5.00
2018-12-15T06:58:00.771Z,5.00
2018-12-15T07:00:28.265Z,5.00
2018-12-15T07:02:55.770Z,5.00
2018-12-15T07:05:23.261Z,5.00
2018-12-15T07:07:50.769Z,5.00
2018-12-15T07:10:18.586Z,5.00
2018-12-15T07:12:46.093Z,5.00
2018-12-15T07:15:13.598Z,5.00
2018-12-15T07:17:41.086Z,5.00
2018-12-15T07:20:08.577Z,5.00
2018-12-15T07:22:36.082Z,5.00
2018-12-15T07:25:04.454Z,5.00
2018-12-15T07:27:31.950Z,5.00
2018-12-15T07:29:59.764Z,5.00
2018-12-15T07:32:27.253Z,5.00
2018-12-15T07:35:00.759Z,5.00
2018-12-15T07:37:24.253Z,5.00
2018-12-15T07:39:51.742Z,5.00
2018-12-15T07:42:19.237Z,5.00
2018-12-15T07:44:46.738Z,5.00
2018-12-15T07:47:14.238Z,5.00
2018-12-15T07:49:41.731Z,5.00
2018-12-15T07:52:09.227Z,5.10
2018-12-15T07:54:36.717Z,5.10
2018-12-15T07:57:04.221Z,5.10
2018-12-15T07:59:31.712Z,5.10
2018-12-15T08:01:59.205Z,5.10
2018-12-15T08:04:26.701Z,5.10
2018-12-15T08:06:54.196Z,5.10
2018-12-15T08:09:21.689Z,5.10
2018-12-15T08:11:54.875Z,5.10
2018-12-15T08:14:22.469Z,5.10
2018-12-15T08:16:49.974Z,5.20
2018-12-15T08:19:17.474Z,5.20
2018-12-15T08:21:44.966Z,5.20
2018-12-15T08:24:12.464Z,5.20
2018-12-15T08:26:39.957Z,5.20
2018-12-15T08:29:07.445Z,5.20
2018-12-15T08:31:34.937Z,5.20
2018-12-15T08:34:02.440Z,5.20
2018-12-15T08:36:29.933Z,5.30
2018-12-15T08:38:57.434Z,5.30
2018-12-15T08:41:25.036Z,5.30
2018-12-15T08:43:52.540Z,5.30
2018-12-15T08:46:20.038Z,5.30
2018-12-15T08:48:47.540Z,5.40
2018-12-15T08:51:15.322Z,5.40
2018-12-15T08:53:42.917Z,5.40
2018-12-15T08:56:10.415Z,5.40
2018-12-15T08:58:37.915Z,5.40
2018-12-15T09:01:05.406Z,5.40
2018-12-15T09:03:32.909Z,5.40
2018-12-15T09:06:00.404Z,5.40
2018-12-15T09:08:27.898Z,5.40
2018-12-15T09:10:55.398Z,5.50
2018-12-15T09:13:22.897Z,5.50
2018-12-15T09:15:50.398Z,5.50
2018-12-15T09:18:17.898Z,5.60
2018-12-15T09:20:45.397Z,5.70
2018-12-15T09:23:12.954Z,5.90
2018-12-15T09:25:40.454Z,6.10
2018-12-15T09:28:07.952Z,6.40
2018-12-15T09:30:35.448Z,6.70
2018-12-15T09:33:02.945Z,7.00
2018-12-15T09:35:30.446Z,7.30
2018-12-15T09:37:57.944Z,7.50
2018-12-15T09:40:25.446Z,7.70
2018-12-15T09:42:52.946Z,7.90
2018-12-15T09:45:20.765Z,8.10
2018-12-15T09:47:48.257Z,8.30
2018-12-15T09:50:15.750Z,8.50
2018-12-15T09:52:43.241Z,8.60
2018-12-15T09:55:10.742Z,8.70
2018-12-15T09:57:38.237Z,8.90
2018-12-15T10:00:06.666Z,9.10
2018-12-15T10:02:34.161Z,9.20
2018-12-15T10:05:01.663Z,9.30
2018-12-15T10:07:29.161Z,9.40
2018-12-15T10:09:56.658Z,9.40
2018-12-15T10:12:24.154Z,9.40
2018-12-15T10:14:51.649Z,9.50
2018-12-15T10:17:19.144Z,9.50
2018-12-15T10:19:47.117Z,9.60
2018-12-15T10:22:14.613Z,9.60
2018-12-15T10:24:42.109Z,9.70
2018-12-15T10:27:09.606Z,9.80
2018-12-15T10:29:42.852Z,9.90
2018-12-15T10:32:15.935Z,10.00
2018-12-15T10:34:43.441Z,10.10
2018-12-15T10:37:10.944Z,10.20
2018-12-15T10:39:38.445Z,10.30
2018-12-15T10:42:05.944Z,10.40
2018-12-15T10:44:33.449Z,10.40
2018-12-15T10:47:00.961Z,10.30
2018-12-15T10:49:30.751Z,10.20
2018-12-15T10:51:57.993Z,10.30
2018-12-15T10:54:25.496Z,10.50
2018-12-15T10:56:53.006Z,10.60
2018-12-15T10:59:20.505Z,10.70
2018-12-15T11:01:48.030Z,10.80
2018-12-15T11:04:15.543Z,10.90
2018-12-15T11:06:43.046Z,11.00
2018-12-15T11:09:10.553Z,11.00
2018-12-15T11:11:38.057Z,11.00
2018-12-15T11:14:05.563Z,11.10
2018-12-15T11:16:33.358Z,11.10
2018-12-15T11:19:00.859Z,11.20
2018-12-15T11:21:28.361Z,11.20
2018-12-15T11:23:55.870Z,11.30
2018-12-15T11:26:23.369Z,11.30
2018-12-15T11:28:50.877Z,11.30
2018-12-15T11:31:18.380Z,11.30
2018-12-15T11:33:45.897Z,11.30
2018-12-15T11:36:13.398Z,11.40
2018-12-15T11:38:40.901Z,11.50
2018-12-15T11:41:08.410Z,11.50
2018-12-15T11:43:35.909Z,11.50
2018-12-15T11:46:03.410Z,11.60
2018-12-15T11:48:30.913Z,11.60
2018-12-15T11:50:58.870Z,11.70
2018-12-15T11:53:26.370Z,11.70
2018-12-15T11:55:53.877Z,11.80
2018-12-15T11:58:21.386Z,11.80
2018-12-15T12:00:48.889Z,11.80
2018-12-15T12:03:16.391Z,11.70
2018-12-15T12:05:43.892Z,11.80
2018-12-15T12:08:11.397Z,11.80
2018-12-15T12:10:38.901Z,11.80
2018-12-15T12:13:06.402Z,11.80
2018-12-15T12:15:33.901Z,11.90
2018-12-15T12:18:01.410Z,11.90
2018-12-15T12:20:29.229Z,12.00
2018-12-15T12:22:56.733Z,12.10
2018-12-15T12:25:24.233Z,12.10
2018-12-15T12:27:51.734Z,12.00
2018-12-15T12:30:19.237Z,12.00
2018-12-15T12:32:46.746Z,12.10
2018-12-15T12:35:14.250Z,12.10
2018-12-15T12:37:41.758Z,12.10
2018-12-15T12:40:09.257Z,12.20
2018-12-15T12:42:36.774Z,12.20
2018-12-15T12:45:05.732Z,12.20
2018-12-15T12:47:33.230Z,12.20
2018-12-15T12:50:00.741Z,12.30
2018-12-15T12:52:28.242Z,12.30
2018-12-15T12:54:55.741Z,12.30
2018-12-15T12:57:23.240Z,12.30
2018-12-15T12:59:50.737Z,12.30
2018-12-15T13:02:18.233Z,12.30
2018-12-15T13:04:45.741Z,12.30
2018-12-15T13:07:13.250Z,12.30
2018-12-15T13:09:41.013Z,12.30
2018-12-15T13:12:08.510Z,12.30
2018-12-15T13:14:36.098Z,12.30
2018-12-15T13:17:03.595Z,12.20
2018-12-15T13:19:31.094Z,12.20
2018-12-15T13:21:58.598Z,12.10
2018-12-15T13:24:26.095Z,12.10
2018-12-15T13:26:58.977Z,12.00
2018-12-15T13:29:23.122Z,12.00
2018-12-15T13:31:50.625Z,11.90
2018-12-15T13:34:18.134Z,11.90
2018-12-15T13:36:45.636Z,11.80
2018-12-15T13:39:13.150Z,11.70
2018-12-15T13:41:40.657Z,11.60
2018-12-15T13:44:08.167Z,11.60
2018-12-15T13:46:35.671Z,11.60
2018-12-15T13:49:03.177Z,11.50
2018-12-15T13:51:30.682Z,11.50
2018-12-15T13:53:58.185Z,11.40
2018-12-15T13:56:25.685Z,11.40
2018-12-15T13:58:53.198Z,11.40
2018-12-15T14:01:20.702Z,11.30
2018-12-15T14:03:48.213Z,11.30
2018-12-15T14:06:15.713Z,11.30
2018-12-15T14:08:43.218Z,11.30
2018-12-15T14:11:10.721Z,11.30
2018-12-15T14:13:38.221Z,11.20
2018-12-15T14:16:05.730Z,11.20
2018-12-15T14:18:33.237Z,11.20
2018-12-15T14:21:00.743Z,11.20
2018-12-15T14:23:28.245Z,11.20
2018-12-15T14:25:55.745Z,11.10
2018-12-15T14:28:23.259Z,11.10
2018-12-15T14:30:50.769Z,11.10
2018-12-15T14:33:18.273Z,11.10
2018-12-15T14:35:45.784Z,11.00
2018-12-15T14:38:13.290Z,11.00
2018-12-15T14:40:40.844Z,11.00
2018-12-15T14:43:08.353Z,11.00
2018-12-15T14:45:35.854Z,11.00
2018-12-15T14:48:03.359Z,11.00
2018-12-15T14:50:30.865Z,11.00
2018-12-15T14:52:58.372Z,11.00
2018-12-15T14:55:25.873Z,11.00
2018-12-15T14:57:53.388Z,10.90
2018-12-15T15:00:20.889Z,11.00
2018-12-15T15:02:48.389Z,10.90
2018-12-15T15:05:15.892Z,10.90
2018-12-15T15:07:43.398Z,10.90
2018-12-15T15:10:10.901Z,10.90
2018-12-15T15:12:38.410Z,10.80
2018-12-15T15:15:06.197Z,10.80
2018-12-15T15:17:33.702Z,10.80
2018-12-15T15:20:01.209Z,10.80
2018-12-15T15:22:28.710Z,10.80
2018-12-15T15:24:56.595Z,10.80
2018-12-15T15:27:24.109Z,10.80
2018-12-15T15:29:51.873Z,10.80
2018-12-15T15:32:19.369Z,10.80
2018-12-15T15:34:47.343Z,10.80
2018-12-15T15:37:14.842Z,10.80
2018-12-15T15:39:42.344Z,10.80
2018-12-15T15:42:10.327Z,10.80
2018-12-15T15:44:37.841Z,10.70
2018-12-15T15:47:05.341Z,10.70
2018-12-15T15:49:32.841Z,10.80
2018-12-15T15:52:00.342Z,10.80
2018-12-15T15:54:27.841Z,10.70
2018-12-15T15:56:55.343Z,10.70
2018-12-15T15:59:22.842Z,10.70
2018-12-15T16:01:50.341Z,10.70
2018-12-15T16:04:17.843Z,10.70
2018-12-15T16:06:45.342Z,10.70
2018-12-15T16:09:12.869Z,10.60
2018-12-15T16:11:40.366Z,10.50
2018-12-15T16:14:07.870Z,10.50
2018-12-15T16:16:35.368Z,10.60
2018-12-15T16:19:02.872Z,10.60
2018-12-15T16:21:30.385Z,10.60
2018-12-15T16:23:57.892Z,10.60
2018-12-15T16:26:25.389Z,10.60
2018-12-15T16:28:52.889Z,10.60
2018-12-15T16:31:20.385Z,10.60
2018-12-15T16:33:47.993Z,10.60
2018-12-15T16:36:15.496Z,10.60
2018-12-15T16:38:43.003Z,10.50
2018-12-15T16:41:10.501Z,10.40
2018-12-15T16:43:38.001Z,10.30
2018-12-15T16:46:05.501Z,10.30
2018-12-15T16:48:35.081Z,10.30
2018-12-15T16:51:05.233Z,10.40
2018-12-15T16:53:35.523Z,10.40
2018-12-15T16:56:03.294Z,10.40
2018-12-15T16:58:32.537Z,10.40
2018-12-15T17:01:00.217Z,10.40
2018-12-15T17:03:30.486Z,10.40
2018-12-15T17:05:57.229Z,10.40
2018-12-15T17:08:24.725Z,10.40
2018-12-15T17:10:52.536Z,10.30
2018-12-15T17:13:20.035Z,10.10
2018-12-15T17:15:47.541Z,10.10
2018-12-15T17:18:15.051Z,10.10
2018-12-15T17:20:42.550Z,10.10
2018-12-15T17:23:10.051Z,10.20
2018-12-15T17:25:37.938Z,10.20
2018-12-15T17:28:05.432Z,10.20
2018-12-15T17:30:32.930Z,10.20
2018-12-15T17:33:00.431Z,10.20
2018-12-15T17:35:27.941Z,10.20
2018-12-15T17:37:55.441Z,10.20
2018-12-15T17:40:22.953Z,10.20
2018-12-15T17:42:50.461Z,10.20
2018-12-15T17:45:17.969Z,10.20
2018-12-15T17:47:45.472Z,10.20
2018-12-15T17:50:12.975Z,10.20
2018-12-15T17:52:40.473Z,10.20
2018-12-15T17:55:07.974Z,10.10
2018-12-15T17:57:35.991Z,10.10
2018-12-15T18:00:05.957Z,10.10
2018-12-15T18:02:33.754Z,10.10
2018-12-15T18:05:01.255Z,10.10
2018-12-15T18:07:28.765Z,10.10
2018-12-15T18:09:56.262Z,10.10
2018-12-15T18:12:23.762Z,10.00
2018-12-15T18:14:51.264Z,10.00
2018-12-15T18:17:18.885Z,10.00
2018-12-15T18:19:46.385Z,10.00
2018-12-15T18:22:13.881Z,10.00
2018-12-15T18:24:41.381Z,10.00
2018-12-15T18:27:08.878Z,9.90
2018-12-15T18:29:36.376Z,9.60
2018-12-15T18:32:03.869Z,9.50
2018-12-15T18:34:31.369Z,9.50
2018-12-15T18:36:58.865Z,9.50
2018-12-15T18:39:26.364Z,9.50
2018-12-15T18:41:53.861Z,9.40
2018-12-15T18:44:21.360Z,9.40
2018-12-15T18:46:48.873Z,9.50
2018-12-15T18:49:16.374Z,9.50
2018-12-15T18:51:43.870Z,9.40
2018-12-15T18:54:11.371Z,9.40
2018-12-15T18:56:39.047Z,9.40
2018-12-15T18:59:07.150Z,9.50
2018-12-15T19:01:34.737Z,9.50
2018-12-15T19:04:02.237Z,9.50
2018-12-15T19:06:29.737Z,9.50
2018-12-15T19:09:03.886Z,9.50
2018-12-15T19:11:26.739Z,9.50
2018-12-15T19:13:54.241Z,9.50
2018-12-15T19:16:21.734Z,9.50
2018-12-15T19:18:49.233Z,9.50
2018-12-15T19:21:22.776Z,9.40
2018-12-15T19:23:46.354Z,9.40
2018-12-15T19:26:13.850Z,9.40
2018-12-15T19:28:41.342Z,9.40
2018-12-15T19:31:08.841Z,9.40
2018-12-15T19:33:36.334Z,9.40
2018-12-15T19:36:04.053Z,9.40
2018-12-15T19:38:31.548Z,9.30
2018-12-15T19:40:59.045Z,9.30
2018-12-15T19:43:26.538Z,9.30
2018-12-15T19:45:54.245Z,9.30
2018-12-15T19:48:21.738Z,9.30
2018-12-15T19:50:49.230Z,9.30
2018-12-15T19:53:16.725Z,9.30
2018-12-15T19:55:44.218Z,9.20
2018-12-15T19:58:11.714Z,9.20
2018-12-15T20:00:39.215Z,9.20
2018-12-15T20:03:06.710Z,9.20
2018-12-15T20:05:34.200Z,9.20
2018-12-15T20:08:01.697Z,9.20
2018-12-15T20:10:29.193Z,9.20
2018-12-15T20:12:56.699Z,9.10
2018-12-15T20:15:24.198Z,9.10
2018-12-15T20:17:51.692Z,9.10
2018-12-15T20:20:19.183Z,9.10
2018-12-15T20:22:46.682Z,9.10
2018-12-15T20:25:14.293Z,9.10
2018-12-15T20:27:41.785Z,9.10
2018-12-15T20:30:09.281Z,9.00
2018-12-15T20:32:36.775Z,9.00
2018-12-15T20:35:04.655Z,9.00
2018-12-15T20:37:32.149Z,9.00
2018-12-15T20:39:59.645Z,9.00
2018-12-15T20:42:27.200Z,9.00
2018-12-15T20:44:54.749Z,8.90
2018-12-15T20:47:27.915Z,9.00
2018-12-15T20:49:51.756Z,8.90
2018-12-15T20:52:19.252Z,8.90
2018-12-15T20:54:46.742Z,8.90
2018-12-15T20:57:14.231Z,8.90
2018-12-15T20:59:41.725Z,8.90
2018-12-15T21:02:09.218Z,8.90
2018-12-15T21:04:36.715Z,8.80
2018-12-15T21:07:04.265Z,8.80
2018-12-15T21:09:31.817Z,8.80
2018-12-15T21:11:59.313Z,8.80
2018-12-15T21:14:26.806Z,8.80
2018-12-15T21:16:54.297Z,8.80
2018-12-15T21:19:21.797Z,8.80
2018-12-15T21:21:49.693Z,8.80
2018-12-15T21:24:17.506Z,8.70
2018-12-15T21:26:45.000Z,8.70
2018-12-15T21:29:12.496Z,8.70
2018-12-15T21:31:39.988Z,8.70
2018-12-15T21:34:08.011Z,8.70
2018-12-15T21:36:36.093Z,8.70
2018-12-15T21:39:04.943Z,8.70
2018-12-15T21:41:32.434Z,8.70
2018-12-15T21:43:59.929Z,8.70
2018-12-15T21:46:27.416Z,8.70
2018-12-15T21:48:54.905Z,8.70
2018-12-15T21:51:22.398Z,8.60
2018-12-15T21:53:49.894Z,8.70
2018-12-15T21:56:17.389Z,8.60
2018-12-15T21:58:44.887Z,8.60
2018-12-15T22:01:12.381Z,8.60
2018-12-15T22:03:39.876Z,8.60
2018-12-15T22:06:07.370Z,8.60
2018-12-15T22:08:34.866Z,8.60
2018-12-15T22:11:02.366Z,8.60
2018-12-15T22:13:29.861Z,8.60
2018-12-15T22:15:57.477Z,8.60
2018-12-15T22:18:24.971Z,8.50
2018-12-15T22:20:52.552Z,8.60
2018-12-15T22:23:20.049Z,8.50
2018-12-15T22:25:47.541Z,8.50
2018-12-15T22:28:15.034Z,8.50
2018-12-15T22:30:42.536Z,8.50
2018-12-15T22:33:10.028Z,8.50
2018-12-15T22:35:37.522Z,8.40
2018-12-15T22:38:05.017Z,8.40
2018-12-15T22:40:32.505Z,8.40
2018-12-15T22:42:59.998Z,8.40
2018-12-15T22:45:27.500Z,8.40
2018-12-15T22:47:54.997Z,8.40
2018-12-15T22:50:22.621Z,8.40
2018-12-15T22:52:50.114Z,8.40
2018-12-15T22:55:17.610Z,8.40
2018-12-15T22:57:45.101Z,8.40
2018-12-15T23:00:12.802Z,8.40
2018-12-15T23:02:40.297Z,8.30
2018-12-15T23:05:07.792Z,8.30
2018-12-15T23:07:35.282Z,8.30
2018-12-15T23:10:04.229Z,8.30
2018-12-15T23:12:31.739Z,8.30
2018-12-15T23:14:59.229Z,8.30
2018-12-15T23:17:26.741Z,8.30
2018-12-15T23:19:54.233Z,8.30
2018-12-15T23:22:21.721Z,8.30
2018-12-15T23:24:49.215Z,8.20
2018-12-15T23:27:16.713Z,8.20
2018-12-15T23:29:44.207Z,8.20
2018-12-15T23:32:11.703Z,8.20
2018-12-15T23:34:39.201Z,8.20
2018-12-15T23:37:06.693Z,8.20
2018-12-15T23:39:34.191Z,8.10
2018-12-15T23:42:01.689Z,8.10
2018-12-15T23:44:29.185Z,8.10
2018-12-15T23:46:56.674Z,8.10
2018-12-15T23:49:24.169Z,8.10
2018-12-15T23:51:51.664Z,8.10
2018-12-15T23:54:19.157Z,8.00
2018-12-15T23:56:46.655Z,8.00
2018-12-15T23:59:14.149Z,8.00
